RJSC/GAJ METAR and TAF weather

Enter ICAO airport designator
Station Type Date Time Source
RJSC METAR 2019/10/15 10:00 UTC NOAA

RJSC 151000Z VRB01KT 9999 FEW050 SCT060 10/06 Q1026


Station Type Date Time Source
RJSC Decoded METAR 2019/10/15 10:00 UTC NOAA

Yamagata Airport, Japan (RJSC) 38-25N 140-22E 108M
Oct 15, 2019 - 06:00 AM EDT / 2019.10.15 1000 UTC
Wind: Variable at 1 MPH (1 KT):0
Visibility: greater than 7 mile(s):0
Sky conditions: partly cloudy
Temperature: 50 F (10 C)
Dew Point: 42 F (6 C)
Relative Humidity: 76%
Pressure (altimeter): 30.30 in. Hg (1026 hPa)
ob: RJSC 151000Z VRB01KT 9999 FEW050 SCT060 10/06 Q1026
cycle: 10

Station Type Date Time Source
RJSC TAF UTC NOAA

Error!

Example: see airport list